Time;durP1;ratioP1;P1;durP2;ratioP2;P2;SDS_P1;SDS_P2;PMS_P1;PMS_P2;Temp;Humidity;BMP_temperature;BMP_pressure;BME280_temperature;BME280_humidity;BME280_pressure;Samples;Min_cycle;Max_cycle;Signal;HPM_P1;HPM_P2
2023/04/18 00:01:43;;;;;;;;;;;10.30;63.50;;;;;;9175568;19;19918;-70
2023/04/18 00:04:49;;;;;;;;;;;10.20;62.70;;;;;;9178120;19;19978;-70
2023/04/18 00:07:53;;;;;;;;;;;10.20;63.10;;;;;;9178631;19;20321;-70
2023/04/18 00:11:00;;;;;;;;;;;10.20;62.80;;;;;;9178068;19;19930;-70
2023/04/18 00:14:05;;;;;;;;;;;10.10;63.30;;;;;;9174792;19;19915;-70
2023/04/18 00:17:12;;;;;;;;;;;10.10;63.40;;;;;;9178824;19;20305;-70
2023/04/18 00:20:15;;;;;;;;;;;10.00;63.80;;;;;;9177231;19;20332;-70
2023/04/18 00:23:22;;;;;;;;;;;10.00;63.90;;;;;;9177570;19;19915;-70
2023/04/18 00:26:28;;;;;;;;;;;10.00;63.00;;;;;;9177580;19;20423;-70
2023/04/18 00:29:35;;;;;;;;;;;9.90;63.10;;;;;;9177667;19;19919;-70
2023/04/18 00:32:38;;;;;;;;;;;9.90;63.50;;;;;;9177449;19;19918;-70
2023/04/18 00:35:44;;;;;;;;;;;9.90;63.10;;;;;;9172553;19;19919;-70
2023/04/18 00:38:50;;;;;;;;;;;9.90;63.30;;;;;;9177364;19;20450;-70
2023/04/18 00:41:57;;;;;;;;;;;9.80;63.10;;;;;;9173927;19;19922;-70
2023/04/18 00:45:02;;;;;;;;;;;9.80;62.80;;;;;;9176552;19;19922;-70
2023/04/18 00:48:09;;;;;;;;;;;9.80;62.90;;;;;;9175098;19;19926;-70
2023/04/18 00:51:13;;;;;;;;;;;9.80;63.40;;;;;;9177135;19;20401;-70
2023/04/18 00:54:24;;;;;;;;;;;9.70;63.60;;;;;;9176680;19;19926;-70
2023/04/18 00:57:30;;;;;;;;;;;9.70;63.10;;;;;;9176795;19;20245;-71
2023/04/18 01:00:36;;;;;;;;;;;9.70;63.30;;;;;;9173265;19;19926;-70
2023/04/18 01:03:40;;;;;;;;;;;9.70;62.90;;;;;;9175000;19;19926;-70
2023/04/18 01:06:46;;;;;;;;;;;9.70;63.10;;;;;;9174727;19;20259;-70
2023/04/18 01:09:50;;;;;;;;;;;10.20;63.50;;;;;;9175951;19;19923;-71
2023/04/18 01:13:12;;;;;;;;;;;9.60;63.30;;;;;;9172304;19;19922;-70
2023/04/18 01:16:16;;;;;;;;;;;9.60;62.80;;;;;;9178586;19;19929;-70
2023/04/18 01:19:22;;;;;;;;;;;9.60;63.00;;;;;;9183642;19;19934;-70
2023/04/18 01:22:26;;;;;;;;;;;9.60;63.30;;;;;;9182016;19;19922;-70
2023/04/18 01:25:34;;;;;;;;;;;9.50;62.90;;;;;;9183707;19;19937;-71
2023/04/18 01:28:38;;;;;;;;;;;9.60;62.90;;;;;;9181760;19;19959;-70
2023/04/18 01:31:46;;;;;;;;;;;9.50;63.10;;;;;;9183805;19;19919;-70
2023/04/18 01:34:51;;;;;;;;;;;9.50;62.90;;;;;;9183850;19;19942;-70
2023/04/18 01:37:58;;;;;;;;;;;9.50;63.10;;;;;;9178353;19;19926;-70
2023/04/18 01:41:05;;;;;;;;;;;9.50;63.10;;;;;;9181825;19;19929;-71
2023/04/18 01:44:11;;;;;;;;;;;9.40;62.90;;;;;;9181262;19;19940;-70
2023/04/18 01:47:15;;;;;;;;;;;9.40;63.10;;;;;;9182462;19;19926;-70
2023/04/18 01:50:21;;;;;;;;;;;9.40;63.40;;;;;;9182756;19;20355;-71
2023/04/18 01:53:25;;;;;;;;;;;9.30;63.10;;;;;;9182789;19;19918;-70
2023/04/18 01:56:32;;;;;;;;;;;9.30;63.30;;;;;;9180785;19;20261;-70
2023/04/18 01:59:37;;;;;;;;;;;9.30;63.10;;;;;;9181031;19;19926;-70
2023/04/18 02:02:43;;;;;;;;;;;9.30;63.40;;;;;;9178130;19;20286;-70
2023/04/18 02:05:47;;;;;;;;;;;9.20;63.20;;;;;;9180569;19;19913;-70
2023/04/18 02:08:53;;;;;;;;;;;9.20;63.10;;;;;;9182184;19;20292;-69
2023/04/18 02:12:01;;;;;;;;;;;9.20;63.20;;;;;;9182240;19;19925;-70
2023/04/18 02:15:08;;;;;;;;;;;9.20;63.20;;;;;;9181555;19;19915;-70
2023/04/18 02:18:12;;;;;;;;;;;9.20;63.00;;;;;;9180666;19;19926;-70
2023/04/18 02:21:18;;;;;;;;;;;9.10;63.40;;;;;;9180335;19;19926;-69
2023/04/18 02:24:22;;;;;;;;;;;9.20;63.10;;;;;;9181564;19;19911;-70
2023/04/18 02:27:30;;;;;;;;;;;9.20;63.10;;;;;;9178992;19;19919;-70
2023/04/18 02:30:34;;;;;;;;;;;9.20;63.20;;;;;;9180014;19;19960;-70
2023/04/18 02:33:40;;;;;;;;;;;9.20;63.00;;;;;;9181540;19;20534;-70
2023/04/18 02:36:44;;;;;;;;;;;9.20;63.20;;;;;;9177104;19;19922;-70
2023/04/18 02:39:50;;;;;;;;;;;9.20;63.00;;;;;;9180506;19;19918;-70
2023/04/18 02:42:57;;;;;;;;;;;9.20;63.10;;;;;;9178634;19;20038;-70
2023/04/18 02:46:02;;;;;;;;;;;9.20;63.20;;;;;;9179094;19;19921;-70
2023/04/18 02:49:06;;;;;;;;;;;9.20;63.00;;;;;;9181649;19;19925;-70
2023/04/18 02:52:12;;;;;;;;;;;9.20;63.00;;;;;;9180740;19;20245;-70
2023/04/18 02:55:16;;;;;;;;;;;9.20;63.10;;;;;;9179422;19;19923;-70
2023/04/18 02:58:25;;;;;;;;;;;9.20;62.90;;;;;;9179630;19;19922;-70
2023/04/18 03:01:48;;;;;;;;;;;9.20;63.00;;;;;;9178814;19;19953;-70
2023/04/18 03:04:57;;;;;;;;;;;9.20;63.00;;;;;;9178894;19;19926;-69
2023/04/18 03:08:01;;;;;;;;;;;9.20;63.00;;;;;;9178674;19;20256;-70
2023/04/18 03:11:07;;;;;;;;;;;9.20;63.20;;;;;;9178495;19;19923;-70
2023/04/18 03:14:13;;;;;;;;;;;9.20;63.20;;;;;;9177082;19;19922;-71
2023/04/18 03:17:28;;;;;;;;;;;9.20;63.20;;;;;;9178649;19;19940;-69
2023/04/18 03:20:31;;;;;;;;;;;9.20;63.40;;;;;;9179713;19;19989;-70
2023/04/18 03:23:37;;;;;;;;;;;9.20;63.10;;;;;;9180161;19;19918;-70
2023/04/18 03:26:42;;;;;;;;;;;9.20;63.10;;;;;;9178035;19;19911;-69
2023/04/18 03:29:50;;;;;;;;;;;9.20;63.40;;;;;;9177801;19;19926;-69
2023/04/18 03:32:54;;;;;;;;;;;9.20;63.30;;;;;;9177949;19;20380;-69
2023/04/18 03:36:00;;;;;;;;;;;9.20;63.30;;;;;;9172665;19;19922;-69
2023/04/18 03:39:04;;;;;;;;;;;9.20;63.20;;;;;;9174202;19;19919;-69
2023/04/18 03:42:10;;;;;;;;;;;9.20;63.20;;;;;;9175422;19;19926;-69
2023/04/18 03:45:17;;;;;;;;;;;9.20;63.30;;;;;;9177411;19;19923;-69
2023/04/18 03:48:24;;;;;;;;;;;9.10;63.10;;;;;;9177722;19;19925;-69
2023/04/18 03:51:30;;;;;;;;;;;9.10;63.20;;;;;;9179830;19;20314;-69
2023/04/18 03:54:36;;;;;;;;;;;9.20;63.20;;;;;;9179237;19;19919;-69
2023/04/18 03:57:40;;;;;;;;;;;9.20;63.40;;;;;;9178325;19;20374;-71
2023/04/18 04:00:52;;;;;;;;;;;9.20;63.30;;;;;;9176431;19;20253;-70
2023/04/18 04:03:56;;;;;;;;;;;9.20;64.00;;;;;;9178578;19;19955;-69
2023/04/18 04:07:02;;;;;;;;;;;9.20;63.50;;;;;;9176749;19;19922;-70
2023/04/18 04:10:07;;;;;;;;;;;9.20;63.50;;;;;;9177251;19;19926;-70
2023/04/18 04:13:12;;;;;;;;;;;9.10;63.50;;;;;;9174012;19;19922;-70
2023/04/18 04:16:19;;;;;;;;;;;9.10;63.60;;;;;;9176201;19;19915;-71
2023/04/18 04:19:27;;;;;;;;;;;9.10;63.60;;;;;;9176902;19;19923;-70
2023/04/18 04:22:42;;;;;;;;;;;9.10;63.50;;;;;;9173274;19;19918;-70
2023/04/18 04:25:48;;;;;;;;;;;9.10;63.50;;;;;;9177961;19;20276;-70
2023/04/18 04:29:09;;;;;;;;;;;9.10;63.70;;;;;;9175911;19;19914;-70
2023/04/18 04:32:19;;;;;;;;;;;9.10;63.50;;;;;;9175673;19;19923;-70
2023/04/18 04:35:23;;;;;;;;;;;9.10;63.70;;;;;;9175276;19;19926;-70
2023/04/18 04:38:29;;;;;;;;;;;9.10;63.60;;;;;;9172695;19;19927;-70
2023/04/18 04:41:36;;;;;;;;;;;9.10;63.90;;;;;;9174547;19;20360;-70
2023/04/18 04:44:42;;;;;;;;;;;9.10;63.70;;;;;;9175575;19;19918;-70
2023/04/18 04:47:48;;;;;;;;;;;9.10;63.60;;;;;;9175156;19;19919;-70
2023/04/18 04:50:55;;;;;;;;;;;9.10;63.90;;;;;;9174885;19;20067;-70
2023/04/18 04:53:59;;;;;;;;;;;9.10;63.60;;;;;;9176529;19;19915;-70
2023/04/18 04:57:05;;;;;;;;;;;9.10;63.70;;;;;;9175234;19;19919;-69
2023/04/18 05:00:10;;;;;;;;;;;9.10;63.70;;;;;;9174898;19;20337;-70
2023/04/18 05:03:17;;;;;;;;;;;9.00;63.70;;;;;;9171227;19;19919;-69
2023/04/18 05:06:21;;;;;;;;;;;9.10;63.80;;;;;;9175377;19;19986;-70
2023/04/18 05:09:27;;;;;;;;;;;9.10;63.90;;;;;;9175596;19;19918;-69
2023/04/18 05:12:31;;;;;;;;;;;9.00;63.80;;;;;;9174483;19;20451;-70
2023/04/18 05:15:36;;;;;;;;;;;9.00;63.80;;;;;;9176251;19;19915;-69
2023/04/18 05:18:42;;;;;;;;;;;9.00;63.80;;;;;;9176347;19;19918;-69
2023/04/18 05:21:48;;;;;;;;;;;9.10;64.10;;;;;;9173559;19;19922;-70
2023/04/18 05:24:52;;;;;;;;;;;9.00;64.30;;;;;;9175498;19;19914;-70
2023/04/18 05:27:58;;;;;;;;;;;9.10;64.20;;;;;;9176221;19;19918;-70
2023/04/18 05:31:02;;;;;;;;;;;9.10;64.10;;;;;;9171741;19;20252;-70
2023/04/18 05:34:10;;;;;;;;;;;9.10;64.40;;;;;;9175211;19;19922;-69
2023/04/18 05:37:14;;;;;;;;;;;9.10;64.30;;;;;;9168752;19;19927;-70
2023/04/18 05:40:20;;;;;;;;;;;9.10;64.40;;;;;;9175061;19;19922;-69
2023/04/18 05:43:23;;;;;;;;;;;9.10;64.20;;;;;;9171021;19;19915;-68
2023/04/18 05:46:29;;;;;;;;;;;9.10;64.50;;;;;;9174206;19;19919;-70
2023/04/18 05:49:35;;;;;;;;;;;9.20;64.50;;;;;;9174873;19;19948;-70
2023/04/18 05:52:41;;;;;;;;;;;9.10;64.30;;;;;;9174407;19;19929;-70
2023/04/18 05:55:45;;;;;;;;;;;9.20;64.60;;;;;;9174318;19;19925;-70
2023/04/18 05:58:51;;;;;;;;;;;9.20;64.40;;;;;;9172850;19;19911;-69
2023/04/18 06:01:55;;;;;;;;;;;9.20;64.40;;;;;;9173728;19;19915;-63
2023/04/18 06:05:02;;;;;;;;;;;9.20;64.40;;;;;;9181815;19;19919;-63
2023/04/18 06:08:07;;;;;;;;;;;9.20;64.20;;;;;;9181556;19;19921;-63
2023/04/18 06:11:13;;;;;;;;;;;9.30;64.50;;;;;;9171624;19;19923;-63
2023/04/18 06:14:17;;;;;;;;;;;9.20;64.20;;;;;;9172960;19;20352;-63
2023/04/18 06:17:23;;;;;;;;;;;9.20;64.20;;;;;;9175504;19;19922;-63
2023/04/18 06:20:28;;;;;;;;;;;9.30;64.60;;;;;;9166574;19;20274;-63
2023/04/18 06:23:34;;;;;;;;;;;9.40;64.50;;;;;;9165445;19;20356;-63
2023/04/18 06:26:38;;;;;;;;;;;9.40;64.40;;;;;;9164815;19;20284;-63
2023/04/18 06:29:44;;;;;;;;;;;9.40;64.40;;;;;;9163313;19;19919;-63
2023/04/18 06:32:47;;;;;;;;;;;9.40;64.40;;;;;;9167716;19;19919;-63
2023/04/18 06:35:55;;;;;;;;;;;9.50;64.30;;;;;;9164108;19;19927;-64
2023/04/18 06:38:59;;;;;;;;;;;9.60;64.40;;;;;;9171153;19;19952;-64
2023/04/18 06:42:04;;;;;;;;;;;9.70;64.50;;;;;;9170085;19;19922;-64
2023/04/18 06:45:09;;;;;;;;;;;9.80;64.60;;;;;;9170837;19;19923;-64
2023/04/18 06:48:15;;;;;;;;;;;9.90;64.80;;;;;;9171128;19;20522;-64
2023/04/18 06:51:20;;;;;;;;;;;10.10;64.70;;;;;;9170788;19;19915;-63
2023/04/18 06:54:26;;;;;;;;;;;10.10;64.70;;;;;;9172241;19;19918;-64
2023/04/18 06:57:30;;;;;;;;;;;10.20;64.80;;;;;;9179374;19;19937;-63
2023/04/18 07:00:36;;;;;;;;;;;10.30;64.70;;;;;;9181610;19;19918;-63
2023/04/18 07:03:40;;;;;;;;;;;10.30;64.40;;;;;;9178000;19;19982;-63
2023/04/18 07:06:47;;;;;;;;;;;10.40;64.50;;;;;;9180361;19;20344;-64
2023/04/18 07:09:51;;;;;;;;;;;10.40;64.70;;;;;;9177723;19;19926;-64
2023/04/18 07:12:57;;;;;;;;;;;10.40;64.50;;;;;;9175143;19;19926;-63
2023/04/18 07:16:01;;;;;;;;;;;10.40;64.50;;;;;;9176864;19;19937;-63
2023/04/18 07:19:07;;;;;;;;;;;10.50;64.50;;;;;;9169222;19;19919;-63
2023/04/18 07:22:12;;;;;;;;;;;10.50;64.60;;;;;;9170365;19;19922;-64
2023/04/18 07:25:18;;;;;;;;;;;10.50;64.80;;;;;;9169992;19;20574;-64
2023/04/18 07:28:22;;;;;;;;;;;10.60;64.60;;;;;;9171578;19;19922;-63
2023/04/18 07:31:29;;;;;;;;;;;10.60;64.50;;;;;;9168508;19;19907;-64
2023/04/18 07:34:35;;;;;;;;;;;10.60;64.70;;;;;;9178181;19;20032;-63
2023/04/18 07:37:43;;;;;;;;;;;10.60;64.60;;;;;;9165251;19;19926;-64
2023/04/18 07:40:46;;;;;;;;;;;10.70;64.70;;;;;;9169889;19;19938;-64
2023/04/18 07:43:52;;;;;;;;;;;10.70;65.10;;;;;;9167502;19;19923;-64
2023/04/18 07:46:56;;;;;;;;;;;10.70;64.70;;;;;;9170162;19;19934;-64
2023/04/18 07:50:02;;;;;;;;;;;10.80;64.70;;;;;;9166699;19;19957;-64
2023/04/18 07:53:07;;;;;;;;;;;10.80;64.40;;;;;;9164910;19;20389;-64
2023/04/18 07:56:13;;;;;;;;;;;11.00;64.70;;;;;;9169800;19;19918;-64
2023/04/18 07:59:17;;;;;;;;;;;10.90;64.50;;;;;;9172512;19;20337;-64
2023/04/18 08:02:23;;;;;;;;;;;10.90;64.50;;;;;;9169781;19;19923;-64
2023/04/18 08:05:27;;;;;;;;;;;10.90;64.60;;;;;;9168261;19;19923;-64
2023/04/18 08:08:35;;;;;;;;;;;10.80;64.60;;;;;;9167950;19;19926;-64
2023/04/18 08:11:40;;;;;;;;;;;10.80;64.50;;;;;;9168876;19;19919;-64
2023/04/18 08:14:45;;;;;;;;;;;10.80;64.60;;;;;;9169676;19;19919;-63
2023/04/18 08:17:50;;;;;;;;;;;10.80;64.70;;;;;;9166525;19;19923;-64
2023/04/18 08:20:56;;;;;;;;;;;10.90;64.60;;;;;;9170053;19;20271;-64
2023/04/18 08:24:02;;;;;;;;;;;10.90;64.60;;;;;;9167249;19;19954;-64
2023/04/18 08:27:07;;;;;;;;;;;10.90;65.00;;;;;;9170702;19;19914;-64
2023/04/18 08:30:12;;;;;;;;;;;10.90;64.80;;;;;;9170373;19;19975;-64
2023/04/18 08:33:18;;;;;;;;;;;10.90;64.70;;;;;;9166690;19;19934;-64
2023/04/18 08:36:23;;;;;;;;;;;10.90;64.70;;;;;;9168349;19;19934;-64
2023/04/18 08:39:32;;;;;;;;;;;10.90;64.80;;;;;;9168599;19;20346;-64
2023/04/18 08:42:36;;;;;;;;;;;10.90;64.80;;;;;;9170008;19;19966;-64
2023/04/18 08:45:41;;;;;;;;;;;11.00;64.90;;;;;;9168274;19;20311;-64
2023/04/18 08:48:46;;;;;;;;;;;11.00;64.80;;;;;;9172140;19;19922;-64
2023/04/18 08:51:53;;;;;;;;;;;11.10;64.90;;;;;;9173321;19;20356;-64
2023/04/18 08:54:58;;;;;;;;;;;11.10;65.10;;;;;;9165689;19;19923;-64
2023/04/18 08:58:05;;;;;;;;;;;11.10;64.90;;;;;;9168416;19;20809;-64
2023/04/18 09:01:09;;;;;;;;;;;11.20;65.10;;;;;;9168060;19;19968;-64
2023/04/18 09:04:33;;;;;;;;;;;11.20;64.90;;;;;;9168163;19;19918;-64
2023/04/18 09:07:36;;;;;;;;;;;11.30;64.90;;;;;;9166099;19;19941;-65
2023/04/18 09:10:44;;;;;;;;;;;11.40;65.60;;;;;;9172209;19;20341;-66
2023/04/18 09:13:50;;;;;;;;;;;11.40;65.40;;;;;;9172364;19;20332;-65
2023/04/18 09:16:56;;;;;;;;;;;11.60;65.10;;;;;;9176190;19;20542;-67
2023/04/18 09:20:01;;;;;;;;;;;11.70;65.10;;;;;;9176445;19;19919;-66
2023/04/18 09:23:09;;;;;;;;;;;11.80;65.00;;;;;;9172342;19;20269;-66
2023/04/18 09:26:24;;;;;;;;;;;11.80;64.90;;;;;;9169830;19;19918;-67
2023/04/18 09:29:45;;;;;;;;;;;11.90;65.10;;;;;;9170298;19;19919;-67
2023/04/18 09:32:57;;;;;;;;;;;12.00;65.10;;;;;;9169858;19;19923;-67
2023/04/18 09:36:19;;;;;;;;;;;12.20;65.10;;;;;;9164792;19;19925;-67
2023/04/18 09:39:27;;;;;;;;;;;12.50;65.00;;;;;;9177883;19;19923;-65
2023/04/18 09:42:38;;;;;;;;;;;12.60;65.00;;;;;;9178324;19;19923;-65
2023/04/18 09:45:43;;;;;;;;;;;12.70;64.80;;;;;;9177790;19;19918;-67
2023/04/18 09:48:48;;;;;;;;;;;12.90;64.90;;;;;;9179951;19;19918;-66
2023/04/18 09:51:54;;;;;;;;;;;13.00;64.90;;;;;;9183533;19;19922;-66
2023/04/18 09:55:00;;;;;;;;;;;13.10;64.80;;;;;;9182323;19;19918;-66
2023/04/18 09:58:07;;;;;;;;;;;13.20;64.80;;;;;;9182746;19;19927;-66
2023/04/18 10:01:13;;;;;;;;;;;13.30;64.70;;;;;;9182986;19;20301;-65
2023/04/18 10:04:17;;;;;;;;;;;13.40;64.70;;;;;;9180374;19;19915;-66
2023/04/18 10:07:25;;;;;;;;;;;13.50;64.80;;;;;;9182362;19;19934;-66
2023/04/18 10:10:29;;;;;;;;;;;13.60;64.90;;;;;;9179749;19;19922;-65
2023/04/18 10:13:39;;;;;;;;;;;13.80;64.70;;;;;;9179149;19;19918;-67
2023/04/18 10:16:44;;;;;;;;;;;14.00;65.10;;;;;;9176737;19;19921;-66
2023/04/18 10:20:04;;;;;;;;;;;14.10;64.70;;;;;;9177357;19;19915;-66
2023/04/18 10:23:23;;;;;;;;;;;14.20;64.50;;;;;;9178730;19;19915;-66
2023/04/18 10:26:46;;;;;;;;;;;14.40;64.40;;;;;;9171637;19;19907;-67
2023/04/18 10:29:54;;;;;;;;;;;14.50;64.80;;;;;;9166863;19;19934;-66
2023/04/18 10:33:20;;;;;;;;;;;14.50;64.40;;;;;;9170228;19;20815;-66
2023/04/18 10:36:35;;;;;;;;;;;14.50;64.40;;;;;;9171197;19;20265;-66
2023/04/18 10:39:52;;;;;;;;;;;14.60;64.40;;;;;;9169606;19;19922;-66
2023/04/18 10:42:59;;;;;;;;;;;14.60;64.40;;;;;;9171879;19;19928;-66
2023/04/18 10:46:12;;;;;;;;;;;14.60;64.20;;;;;;9168163;19;19926;-66
2023/04/18 10:49:33;;;;;;;;;;;14.60;64.20;;;;;;9178393;19;20026;-67
2023/04/18 10:52:40;;;;;;;;;;;14.60;64.40;;;;;;9181527;19;20256;-66
2023/04/18 10:55:45;;;;;;;;;;;14.60;64.50;;;;;;9182155;19;19915;-66
2023/04/18 10:58:51;;;;;;;;;;;14.50;64.30;;;;;;9180709;19;19914;-67
2023/04/18 11:01:58;;;;;;;;;;;14.40;64.40;;;;;;9180883;19;19930;-66
2023/04/18 11:05:05;;;;;;;;;;;14.40;64.50;;;;;;9179852;19;19911;-66
2023/04/18 11:08:22;;;;;;;;;;;14.30;64.60;;;;;;9177822;19;19929;-66
2023/04/18 11:11:28;;;;;;;;;;;14.30;64.40;;;;;;9180438;19;19918;-66
2023/04/18 11:14:40;;;;;;;;;;;14.20;64.50;;;;;;9180105;19;19929;-66
2023/04/18 11:17:48;;;;;;;;;;;14.10;64.40;;;;;;9178601;19;19926;-66
2023/04/18 11:20:52;;;;;;;;;;;14.10;64.40;;;;;;9177564;19;20524;-66
2023/04/18 11:23:58;;;;;;;;;;;14.20;64.50;;;;;;9177227;19;20339;-66
2023/04/18 11:27:04;;;;;;;;;;;14.10;64.40;;;;;;9170706;19;19915;-66
2023/04/18 11:30:10;;;;;;;;;;;14.10;64.40;;;;;;9170390;19;19938;-66
2023/04/18 11:33:15;;;;;;;;;;;14.10;64.40;;;;;;9169159;19;19922;-66
2023/04/18 11:36:21;;;;;;;;;;;14.10;64.60;;;;;;9165850;19;19919;-66
2023/04/18 11:39:25;;;;;;;;;;;14.20;64.50;;;;;;9178597;19;20340;-70
2023/04/18 11:42:33;;;;;;;;;;;14.20;64.40;;;;;;9178113;19;19915;-67
2023/04/18 11:45:37;;;;;;;;;;;14.20;64.40;;;;;;9172010;19;19918;-67
2023/04/18 11:48:46;;;;;;;;;;;14.20;64.40;;;;;;9167056;19;19926;-67
2023/04/18 11:51:50;;;;;;;;;;;14.30;64.50;;;;;;9161779;19;19930;-67
2023/04/18 11:54:56;;;;;;;;;;;14.30;64.40;;;;;;9163159;19;20264;-67
2023/04/18 11:58:01;;;;;;;;;;;14.30;64.30;;;;;;9163077;19;19923;-67
2023/04/18 12:01:17;;;;;;;;;;;14.40;64.50;;;;;;9162428;19;19930;-67
2023/04/18 12:04:22;;;;;;;;;;;14.50;64.30;;;;;;9161424;19;19923;-67
2023/04/18 12:07:32;;;;;;;;;;;14.60;64.50;;;;;;9162753;19;19919;-67
2023/04/18 12:10:39;;;;;;;;;;;14.70;64.40;;;;;;9164983;19;19934;-67
2023/04/18 12:13:46;;;;;;;;;;;14.80;64.50;;;;;;9158515;19;19967;-67
2023/04/18 12:16:50;;;;;;;;;;;15.00;64.70;;;;;;9160695;19;20723;-67
2023/04/18 12:20:01;;;;;;;;;;;15.20;64.50;;;;;;9163454;19;19922;-67
2023/04/18 12:23:05;;;;;;;;;;;15.30;64.40;;;;;;9162045;19;19948;-67
2023/04/18 12:26:12;;;;;;;;;;;15.40;64.20;;;;;;9163608;19;19950;-67
2023/04/18 12:29:16;;;;;;;;;;;15.60;64.20;;;;;;9163400;19;20340;-68
2023/04/18 12:32:22;;;;;;;;;;;15.70;64.20;;;;;;9164443;19;19918;-67
2023/04/18 12:35:28;;;;;;;;;;;15.80;63.90;;;;;;9159820;19;19915;-67
2023/04/18 12:38:34;;;;;;;;;;;15.90;64.00;;;;;;9160627;19;19927;-65
2023/04/18 12:41:38;;;;;;;;;;;16.00;63.90;;;;;;9161123;19;19926;-65
2023/04/18 12:44:43;;;;;;;;;;;16.20;63.90;;;;;;9165856;19;20245;-66
2023/04/18 12:47:51;;;;;;;;;;;16.30;64.00;;;;;;9161662;19;19934;-66
2023/04/18 12:50:59;;;;;;;;;;;16.40;63.80;;;;;;9160174;19;19938;-66
2023/04/18 12:54:02;;;;;;;;;;;16.50;63.60;;;;;;9162481;19;19918;-66
2023/04/18 12:57:08;;;;;;;;;;;16.60;63.60;;;;;;9160805;19;19922;-66
2023/04/18 13:00:13;;;;;;;;;;;16.70;63.50;;;;;;9157031;19;19926;-66
2023/04/18 13:03:19;;;;;;;;;;;16.70;63.50;;;;;;9161205;19;20216;-66
2023/04/18 13:06:25;;;;;;;;;;;16.70;63.40;;;;;;9161495;19;20358;-66
2023/04/18 13:09:31;;;;;;;;;;;16.70;63.40;;;;;;9160640;19;20252;-66
2023/04/18 13:12:36;;;;;;;;;;;16.70;63.40;;;;;;9157667;19;20264;-66
2023/04/18 13:15:41;;;;;;;;;;;16.60;63.30;;;;;;9159172;19;19915;-66
2023/04/18 13:18:45;;;;;;;;;;;16.60;63.30;;;;;;9162638;19;19918;-66
2023/04/18 13:21:53;;;;;;;;;;;16.70;63.40;;;;;;9159839;19;19919;-66
2023/04/18 13:24:57;;;;;;;;;;;16.70;63.40;;;;;;9158295;19;19923;-65
2023/04/18 13:28:02;;;;;;;;;;;16.80;63.40;;;;;;9160823;19;19941;-65
2023/04/18 13:31:06;;;;;;;;;;;16.80;63.30;;;;;;9160607;19;19952;-65
2023/04/18 13:34:12;;;;;;;;;;;16.90;63.30;;;;;;9158967;19;19922;-65
2023/04/18 13:37:17;;;;;;;;;;;17.00;63.20;;;;;;9154771;19;20455;-67
2023/04/18 13:40:24;;;;;;;;;;;17.00;63.20;;;;;;9159543;19;19929;-67
2023/04/18 13:43:27;;;;;;;;;;;17.10;63.20;;;;;;9160041;19;19918;-66
2023/04/18 13:46:33;;;;;;;;;;;17.20;63.20;;;;;;9161062;19;20474;-67
2023/04/18 13:49:37;;;;;;;;;;;17.20;63.00;;;;;;9159491;19;19926;-67
2023/04/18 13:52:46;;;;;;;;;;;17.20;63.10;;;;;;9159312;19;19924;-67
2023/04/18 13:55:50;;;;;;;;;;;17.20;63.00;;;;;;9160956;19;19933;-67
2023/04/18 13:58:56;;;;;;;;;;;17.20;63.00;;;;;;9158255;19;19918;-67
2023/04/18 14:02:00;;;;;;;;;;;17.20;63.00;;;;;;9160280;19;19929;-67
2023/04/18 14:05:06;;;;;;;;;;;17.20;63.00;;;;;;9158173;19;19911;-67
2023/04/18 14:08:13;;;;;;;;;;;17.20;62.90;;;;;;9160800;19;19933;-65
2023/04/18 14:11:18;;;;;;;;;;;17.20;62.90;;;;;;9158480;19;19923;-67
2023/04/18 14:14:23;;;;;;;;;;;17.30;63.10;;;;;;9152743;19;19937;-66
2023/04/18 14:17:29;;;;;;;;;;;17.30;63.00;;;;;;9157091;19;20582;-66
2023/04/18 14:20:34;;;;;;;;;;;17.30;62.90;;;;;;9155997;19;19926;-66
2023/04/18 14:23:42;;;;;;;;;;;17.40;62.90;;;;;;9161392;19;20529;-66
2023/04/18 14:26:46;;;;;;;;;;;17.40;62.80;;;;;;9166480;19;19926;-66
2023/04/18 14:29:52;;;;;;;;;;;17.40;62.70;;;;;;9165785;19;19966;-66
2023/04/18 14:32:56;;;;;;;;;;;17.40;62.70;;;;;;9168154;19;19934;-66
2023/04/18 14:36:02;;;;;;;;;;;17.40;62.70;;;;;;9160221;19;20011;-66
2023/04/18 14:39:08;;;;;;;;;;;17.40;62.70;;;;;;9164582;19;19937;-66
2023/04/18 14:42:13;;;;;;;;;;;17.40;62.60;;;;;;9166973;19;19919;-66
2023/04/18 14:45:17;;;;;;;;;;;17.40;62.70;;;;;;9164474;19;20283;-66
2023/04/18 14:48:23;;;;;;;;;;;18.00;62.90;;;;;;9164985;19;19922;-66
2023/04/18 14:51:27;;;;;;;;;;;17.40;62.60;;;;;;9170542;19;19967;-66
2023/04/18 14:54:34;;;;;;;;;;;17.40;62.50;;;;;;9173966;19;19929;-66
2023/04/18 14:57:40;;;;;;;;;;;17.40;62.60;;;;;;9168350;19;21374;-66
2023/04/18 15:00:46;;;;;;;;;;;17.30;62.50;;;;;;9169682;19;20328;-66
2023/04/18 15:03:51;;;;;;;;;;;17.30;62.50;;;;;;9171410;19;19952;-66
2023/04/18 15:06:57;;;;;;;;;;;17.30;62.40;;;;;;9171752;19;19918;-66
2023/04/18 15:10:00;;;;;;;;;;;17.30;62.60;;;;;;9168293;19;19915;-65
2023/04/18 15:13:08;;;;;;;;;;;17.30;62.50;;;;;;9170281;19;19929;-65
2023/04/18 15:16:12;;;;;;;;;;;17.30;62.50;;;;;;9170647;19;20352;-65
2023/04/18 15:19:18;;;;;;;;;;;17.20;62.40;;;;;;9166989;19;19915;-65
2023/04/18 15:22:21;;;;;;;;;;;17.20;62.50;;;;;;9162974;19;19933;-65
2023/04/18 15:25:29;;;;;;;;;;;17.30;62.50;;;;;;9161836;19;19946;-65
2023/04/18 15:28:34;;;;;;;;;;;17.20;62.40;;;;;;9164569;19;20257;-65
2023/04/18 15:31:40;;;;;;;;;;;17.20;62.40;;;;;;9164936;19;20882;-64
2023/04/18 15:34:44;;;;;;;;;;;17.10;62.40;;;;;;9164547;19;19919;-64
2023/04/18 15:37:50;;;;;;;;;;;17.00;62.30;;;;;;9171716;19;19918;-64
2023/04/18 15:40:53;;;;;;;;;;;17.10;62.30;;;;;;9179911;19;19929;-65
2023/04/18 15:44:01;;;;;;;;;;;17.10;62.30;;;;;;9177410;19;19927;-65
2023/04/18 15:47:05;;;;;;;;;;;17.10;62.30;;;;;;9173742;19;19925;-64
2023/04/18 15:50:11;;;;;;;;;;;17.10;62.30;;;;;;9168982;19;19911;-65
2023/04/18 15:53:17;;;;;;;;;;;17.10;62.30;;;;;;9176088;19;19989;-65
2023/04/18 15:56:23;;;;;;;;;;;17.10;62.30;;;;;;9178122;19;19922;-70
2023/04/18 15:59:29;;;;;;;;;;;17.00;62.10;;;;;;9178879;19;19922;-70
2023/04/18 16:02:35;;;;;;;;;;;17.00;62.10;;;;;;9179352;19;19918;-69
2023/04/18 16:05:39;;;;;;;;;;;16.90;62.10;;;;;;9175772;19;20344;-70
2023/04/18 16:08:44;;;;;;;;;;;16.90;62.20;;;;;;9178796;19;19923;-65
2023/04/18 16:11:48;;;;;;;;;;;16.80;62.00;;;;;;9176335;19;19938;-65
2023/04/18 16:14:56;;;;;;;;;;;16.70;62.30;;;;;;9178545;19;19930;-65
2023/04/18 16:17:59;;;;;;;;;;;16.70;62.40;;;;;;9178542;19;20339;-65
2023/04/18 16:21:05;;;;;;;;;;;16.60;62.50;;;;;;9178330;19;19922;-64
2023/04/18 16:24:09;;;;;;;;;;;16.60;62.70;;;;;;9177279;19;19952;-67
2023/04/18 16:27:15;;;;;;;;;;;16.60;62.60;;;;;;9177664;19;20240;-64
2023/04/18 16:30:20;;;;;;;;;;;16.60;62.50;;;;;;9177127;19;19932;-64
2023/04/18 16:33:26;;;;;;;;;;;16.50;62.40;;;;;;9177881;19;20359;-66
2023/04/18 16:36:30;;;;;;;;;;;16.40;62.40;;;;;;9172088;19;19923;-66
2023/04/18 16:39:36;;;;;;;;;;;16.40;62.50;;;;;;9177957;19;19923;-64
2023/04/18 16:42:40;;;;;;;;;;;16.30;62.50;;;;;;9176585;19;19918;-65
2023/04/18 16:45:48;;;;;;;;;;;16.20;62.50;;;;;;9171438;19;19911;-68
2023/04/18 16:48:51;;;;;;;;;;;16.20;62.50;;;;;;9176097;19;20356;-67
2023/04/18 16:51:57;;;;;;;;;;;16.10;62.60;;;;;;9177150;19;20279;-67
2023/04/18 16:55:01;;;;;;;;;;;16.10;62.60;;;;;;9177333;19;19926;-67
2023/04/18 16:58:07;;;;;;;;;;;16.00;62.50;;;;;;9178064;19;19925;-67
2023/04/18 17:01:13;;;;;;;;;;;15.90;62.40;;;;;;9177044;19;20354;-67
2023/04/18 17:04:18;;;;;;;;;;;15.90;62.50;;;;;;9175204;19;19937;-67
2023/04/18 17:07:22;;;;;;;;;;;15.80;62.60;;;;;;9176574;19;19918;-67
2023/04/18 17:10:30;;;;;;;;;;;15.70;62.50;;;;;;9176487;19;19914;-67
2023/04/18 17:13:34;;;;;;;;;;;15.70;62.50;;;;;;9172750;19;19919;-67
2023/04/18 17:16:42;;;;;;;;;;;15.60;62.50;;;;;;9176579;19;19926;-67
2023/04/18 17:19:46;;;;;;;;;;;15.50;62.50;;;;;;9175380;19;20354;-68
2023/04/18 17:22:52;;;;;;;;;;;15.50;62.50;;;;;;9175950;19;19922;-65
2023/04/18 17:25:56;;;;;;;;;;;15.50;62.60;;;;;;9172161;19;20014;-65
2023/04/18 17:29:02;;;;;;;;;;;15.40;62.60;;;;;;9176147;19;20684;-65
2023/04/18 17:32:08;;;;;;;;;;;15.40;62.60;;;;;;9175880;19;19921;-70
2023/04/18 17:35:15;;;;;;;;;;;15.30;62.60;;;;;;9175304;19;19919;-66
2023/04/18 17:38:19;;;;;;;;;;;15.30;62.70;;;;;;9169624;19;20259;-66
2023/04/18 17:41:24;;;;;;;;;;;15.30;62.60;;;;;;9172482;19;19914;-67
2023/04/18 17:44:28;;;;;;;;;;;15.20;62.60;;;;;;9173721;19;19922;-65
2023/04/18 17:47:36;;;;;;;;;;;15.20;62.60;;;;;;9174960;19;19919;-68
2023/04/18 17:50:43;;;;;;;;;;;15.00;62.60;;;;;;9174741;19;20257;-68
2023/04/18 17:53:49;;;;;;;;;;;15.00;62.60;;;;;;9175032;19;20256;-67
2023/04/18 17:56:53;;;;;;;;;;;15.00;62.70;;;;;;9174015;19;19925;-68
2023/04/18 17:59:59;;;;;;;;;;;14.90;62.60;;;;;;9182605;19;19922;-67
2023/04/18 18:03:07;;;;;;;;;;;14.90;62.70;;;;;;9174007;19;20352;-67
2023/04/18 18:06:13;;;;;;;;;;;14.80;62.60;;;;;;9170865;19;19918;-65
2023/04/18 18:09:17;;;;;;;;;;;14.80;62.60;;;;;;9180396;19;19952;-68